createdAt,value
2022-08-31T00:02:27.880Z,14.79
2022-08-31T00:04:57.394Z,14.75
2022-08-31T00:07:27.630Z,14.74
2022-08-31T00:09:55.024Z,14.68
2022-08-31T00:12:22.561Z,14.59
2022-08-31T00:14:51.377Z,14.65
2022-08-31T00:17:18.818Z,14.64
2022-08-31T00:19:46.283Z,14.60
2022-08-31T00:22:13.537Z,14.68
2022-08-31T00:24:40.720Z,14.68
2022-08-31T00:27:08.277Z,14.64
2022-08-31T00:29:38.268Z,14.54
2022-08-31T00:32:05.722Z,14.55
2022-08-31T00:34:33.459Z,14.54
2022-08-31T00:37:02.045Z,14.58
2022-08-31T00:39:29.734Z,14.60
2022-08-31T00:41:57.217Z,14.59
2022-08-31T00:44:24.491Z,14.52
2022-08-31T00:46:51.855Z,14.51
2022-08-31T00:49:26.933Z,14.48
2022-08-31T00:52:02.121Z,14.67
2022-08-31T00:54:37.563Z,14.53
2022-08-31T00:57:08.002Z,14.45
2022-08-31T00:59:37.088Z,14.35
2022-08-31T01:02:04.690Z,14.41
2022-08-31T01:04:32.278Z,14.26
2022-08-31T01:07:00.489Z,14.20
2022-08-31T01:09:32.689Z,14.07
2022-08-31T01:12:01.855Z,13.94
2022-08-31T01:14:30.016Z,13.86
2022-08-31T01:16:57.273Z,13.75
2022-08-31T01:19:36.511Z,13.64
2022-08-31T01:22:22.843Z,13.57
2022-08-31T01:24:51.094Z,13.47
2022-08-31T01:27:23.409Z,13.44
2022-08-31T01:29:50.651Z,13.40
2022-08-31T01:32:18.395Z,13.36
2022-08-31T01:34:45.637Z,13.30
2022-08-31T01:37:12.940Z,13.23
2022-08-31T01:39:41.852Z,13.22
2022-08-31T01:42:10.170Z,13.13
2022-08-31T01:44:37.483Z,13.02
2022-08-31T01:47:06.682Z,13.00
2022-08-31T01:49:35.616Z,13.01
2022-08-31T01:52:03.030Z,12.97
2022-08-31T01:54:30.711Z,12.97
2022-08-31T01:56:58.219Z,12.91
2022-08-31T02:00:04.678Z,12.86
2022-08-31T02:02:46.456Z,12.82
2022-08-31T02:05:14.623Z,12.76
2022-08-31T02:07:44.743Z,12.72
2022-08-31T02:10:12.703Z,12.72
2022-08-31T02:12:41.116Z,12.64
2022-08-31T02:15:10.012Z,12.60
2022-08-31T02:17:37.486Z,12.59
2022-08-31T02:20:08.197Z,12.55
2022-08-31T02:22:35.880Z,12.58
2022-08-31T02:25:04.284Z,12.57
2022-08-31T02:27:32.006Z,12.55
2022-08-31T02:29:59.237Z,12.62
2022-08-31T02:32:26.583Z,12.71
2022-08-31T02:34:54.250Z,12.70
2022-08-31T02:37:21.507Z,12.66
2022-08-31T02:39:50.268Z,12.61
2022-08-31T02:42:19.020Z,12.53
2022-08-31T02:44:46.697Z,12.46
2022-08-31T02:47:14.075Z,12.44
2022-08-31T02:49:50.311Z,12.49
2022-08-31T02:52:17.534Z,12.47
2022-08-31T02:54:45.145Z,12.48
2022-08-31T02:57:12.818Z,12.44
2022-08-31T02:59:40.281Z,12.46
2022-08-31T03:02:07.915Z,12.53
2022-08-31T03:04:38.356Z,12.64
2022-08-31T03:07:05.735Z,12.59
2022-08-31T03:09:33.122Z,12.59
2022-08-31T03:12:00.803Z,12.67
2022-08-31T03:14:28.318Z,12.72
2022-08-31T03:16:55.698Z,12.72
2022-08-31T03:19:23.186Z,12.70
2022-08-31T03:21:55.914Z,12.73
2022-08-31T03:24:27.237Z,12.80
2022-08-31T03:26:55.459Z,12.94
2022-08-31T03:29:22.783Z,13.14
2022-08-31T03:32:13.897Z,13.34
2022-08-31T03:34:43.466Z,13.29
2022-08-31T03:37:11.082Z,13.43
2022-08-31T03:39:39.112Z,13.48
2022-08-31T03:42:07.089Z,13.69
2022-08-31T03:44:34.534Z,13.76
2022-08-31T03:47:02.142Z,13.90
2022-08-31T03:49:29.368Z,13.89
2022-08-31T03:52:09.488Z,13.80
2022-08-31T03:54:44.376Z,13.71
2022-08-31T03:57:12.862Z,13.68
2022-08-31T03:59:40.178Z,13.61
2022-08-31T04:02:20.087Z,13.63
2022-08-31T04:05:07.712Z,13.53
2022-08-31T04:07:54.906Z,13.45
2022-08-31T04:10:42.892Z,13.44
2022-08-31T04:13:30.385Z,13.49
2022-08-31T04:16:15.500Z,13.49
2022-08-31T04:19:07.860Z,13.59
2022-08-31T04:21:44.226Z,13.73
2022-08-31T04:24:13.390Z,13.66
2022-08-31T04:26:41.390Z,13.75
2022-08-31T04:29:13.466Z,13.79
2022-08-31T04:31:42.332Z,13.85
2022-08-31T04:34:09.623Z,13.84
2022-08-31T04:36:37.642Z,13.96
2022-08-31T04:39:06.532Z,14.03
2022-08-31T04:41:38.463Z,14.05
2022-08-31T04:44:07.991Z,14.00
2022-08-31T04:46:37.372Z,13.99
2022-08-31T04:49:05.340Z,14.18
2022-08-31T04:51:35.588Z,14.27
2022-08-31T04:54:06.502Z,14.35
2022-08-31T04:56:37.310Z,14.41
2022-08-31T04:59:08.019Z,14.49
2022-08-31T05:01:45.341Z,14.53
2022-08-31T05:04:31.997Z,14.54
2022-08-31T05:06:59.819Z,14.59
2022-08-31T05:09:29.497Z,14.64
2022-08-31T05:11:57.199Z,14.67
2022-08-31T05:14:25.992Z,14.81
2022-08-31T05:17:01.424Z,14.98
2022-08-31T05:19:32.136Z,15.27
2022-08-31T05:21:59.715Z,15.51
2022-08-31T05:24:27.654Z,15.76
2022-08-31T05:26:56.215Z,16.13
2022-08-31T05:29:26.206Z,16.62
2022-08-31T05:32:25.976Z,17.17
2022-08-31T05:34:55.463Z,17.46
2022-08-31T05:37:24.377Z,18.06
2022-08-31T05:39:52.348Z,18.12
2022-08-31T05:42:19.983Z,18.08
2022-08-31T05:44:47.956Z,18.00
2022-08-31T05:47:16.607Z,18.11
2022-08-31T05:49:44.543Z,18.19
2022-08-31T05:52:15.710Z,18.00
2022-08-31T05:54:44.159Z,17.95
2022-08-31T05:57:11.720Z,18.01
2022-08-31T05:59:39.883Z,18.00
2022-08-31T06:02:11.413Z,18.03
2022-08-31T06:04:40.089Z,19.10
2022-08-31T06:07:08.182Z,20.74
2022-08-31T06:09:41.875Z,20.31
2022-08-31T06:12:10.810Z,20.02
2022-08-31T06:14:44.247Z,19.54
2022-08-31T06:17:13.301Z,18.81
2022-08-31T06:19:40.530Z,18.61
2022-08-31T06:22:07.732Z,19.00
2022-08-31T06:24:37.093Z,18.89
2022-08-31T06:27:06.205Z,18.82
2022-08-31T06:29:36.457Z,19.16
2022-08-31T06:32:08.284Z,22.34
2022-08-31T06:34:39.781Z,26.74
2022-08-31T06:37:10.840Z,29.94
2022-08-31T06:40:14.283Z,32.14
2022-08-31T06:43:07.977Z,31.82
2022-08-31T06:46:08.031Z,30.23
2022-08-31T06:49:14.635Z,31.84
2022-08-31T06:51:42.817Z,31.35
2022-08-31T06:54:29.035Z,28.66
2022-08-31T06:57:16.301Z,31.38
2022-08-31T07:00:02.646Z,31.04
2022-08-31T07:02:41.831Z,28.92
2022-08-31T07:05:13.730Z,27.57
2022-08-31T07:07:43.969Z,26.04
2022-08-31T07:10:11.384Z,27.97
2022-08-31T07:12:38.691Z,28.78
2022-08-31T07:15:06.617Z,29.03
2022-08-31T07:17:33.917Z,26.36
2022-08-31T07:20:03.876Z,24.58
2022-08-31T07:22:31.380Z,23.42
2022-08-31T07:25:26.640Z,22.16
2022-08-31T07:27:55.668Z,21.47
2022-08-31T07:30:23.595Z,20.47
2022-08-31T07:32:51.360Z,20.26
2022-08-31T07:35:24.824Z,19.73
2022-08-31T07:38:36.878Z,19.56
2022-08-31T07:41:28.486Z,19.70
2022-08-31T07:43:59.634Z,19.60
2022-08-31T07:46:32.125Z,22.12
2022-08-31T07:49:02.348Z,25.95
2022-08-31T07:51:53.501Z,25.21
2022-08-31T07:54:39.944Z,23.95
2022-08-31T07:57:30.240Z,23.19
2022-08-31T08:00:06.973Z,23.59
2022-08-31T08:02:50.785Z,25.68
2022-08-31T08:05:29.012Z,27.12
2022-08-31T08:08:16.980Z,24.91
2022-08-31T08:10:56.414Z,23.06
2022-08-31T08:13:43.337Z,25.38
2022-08-31T08:16:21.939Z,28.12
2022-08-31T08:19:15.960Z,27.70
2022-08-31T08:21:46.198Z,27.19
2022-08-31T08:24:15.997Z,26.42
2022-08-31T08:27:02.727Z,26.70
2022-08-31T08:29:43.414Z,27.56
2022-08-31T08:32:17.606Z,28.57
2022-08-31T08:34:46.100Z,28.49
2022-08-31T08:37:14.453Z,28.58
2022-08-31T08:39:43.207Z,28.08
2022-08-31T08:42:20.557Z,27.78
2022-08-31T08:44:48.542Z,28.20
2022-08-31T08:47:24.068Z,28.58
2022-08-31T08:50:03.860Z,26.87
2022-08-31T08:52:41.515Z,25.93
2022-08-31T08:55:17.286Z,26.01
2022-08-31T08:57:49.662Z,26.28
2022-08-31T09:00:21.251Z,24.02
2022-08-31T09:03:07.321Z,22.90
2022-08-31T09:06:09.832Z,23.91
2022-08-31T09:08:58.957Z,25.42
2022-08-31T09:11:50.166Z,27.47
2022-08-31T09:14:48.368Z,26.71
2022-08-31T09:17:29.101Z,26.03
2022-08-31T09:20:00.425Z,27.86
2022-08-31T09:22:33.353Z,27.77
2022-08-31T09:25:03.676Z,28.60
2022-08-31T09:28:07.654Z,29.19
2022-08-31T09:30:40.514Z,26.72
2022-08-31T09:33:20.522Z,27.06
2022-08-31T09:35:56.667Z,25.96
2022-08-31T09:38:40.394Z,26.01
2022-08-31T09:41:31.571Z,25.95
2022-08-31T09:44:25.209Z,27.25
2022-08-31T09:46:57.550Z,26.24
2022-08-31T09:49:32.517Z,26.74
2022-08-31T09:52:54.937Z,25.38
2022-08-31T09:55:25.560Z,25.24
2022-08-31T09:58:04.419Z,26.06
2022-08-31T10:00:41.426Z,26.76
2022-08-31T10:03:26.074Z,25.68
2022-08-31T10:05:55.032Z,26.86
2022-08-31T10:08:58.232Z,25.45
2022-08-31T10:11:32.753Z,25.00
2022-08-31T10:14:22.780Z,24.69
2022-08-31T10:17:02.728Z,24.51
2022-08-31T10:19:53.080Z,22.75
2022-08-31T10:22:32.055Z,23.17
2022-08-31T10:25:17.408Z,23.20
2022-08-31T10:27:49.869Z,23.42
2022-08-31T10:30:25.136Z,23.27
2022-08-31T10:34:01.430Z,23.53
2022-08-31T10:36:36.437Z,23.75
2022-08-31T10:39:09.605Z,23.78
2022-08-31T10:41:44.234Z,23.70
2022-08-31T10:44:26.896Z,22.84
2022-08-31T10:46:58.430Z,23.09
2022-08-31T10:49:26.915Z,22.53
2022-08-31T10:52:03.376Z,22.60
2022-08-31T10:54:32.278Z,23.11
2022-08-31T10:57:31.553Z,23.14
2022-08-31T11:00:34.988Z,23.60
2022-08-31T11:03:32.975Z,21.88
2022-08-31T11:06:30.149Z,22.73
2022-08-31T11:09:23.320Z,22.72
2022-08-31T11:12:07.299Z,21.88
2022-08-31T11:14:49.946Z,20.40
2022-08-31T11:17:30.026Z,19.83
2022-08-31T11:20:13.810Z,19.17
2022-08-31T11:23:10.530Z,18.97
2022-08-31T11:26:17.713Z,19.15
2022-08-31T11:28:56.470Z,19.10
2022-08-31T11:31:27.479Z,19.22
2022-08-31T11:34:15.925Z,18.93
2022-08-31T11:36:55.166Z,18.99
2022-08-31T11:39:44.593Z,18.68
2022-08-31T11:42:26.881Z,18.52
2022-08-31T11:45:12.907Z,18.45
2022-08-31T11:47:43.418Z,18.35
2022-08-31T11:50:32.867Z,18.30
2022-08-31T11:53:17.706Z,18.32
2022-08-31T11:55:48.016Z,18.23
2022-08-31T11:58:27.333Z,18.17
2022-08-31T12:00:58.728Z,18.12
2022-08-31T12:03:44.552Z,18.08
2022-08-31T12:06:37.338Z,18.15
2022-08-31T12:09:40.199Z,18.12
2022-08-31T12:12:44.017Z,18.27
2022-08-31T12:15:25.644Z,18.29
2022-08-31T12:17:55.490Z,18.13
2022-08-31T12:21:19.372Z,18.01
2022-08-31T12:24:05.366Z,18.14
2022-08-31T12:27:07.956Z,18.03
2022-08-31T12:29:39.872Z,18.01
2022-08-31T12:32:11.151Z,18.09
2022-08-31T12:34:56.316Z,18.11
2022-08-31T12:37:29.826Z,18.04
2022-08-31T12:40:14.447Z,18.10
2022-08-31T12:42:53.154Z,18.18
2022-08-31T12:45:32.653Z,18.10
2022-08-31T12:48:08.718Z,18.08
2022-08-31T12:50:52.997Z,18.20
2022-08-31T12:53:44.751Z,18.34
2022-08-31T12:57:01.550Z,18.41
2022-08-31T13:00:00.081Z,18.32
2022-08-31T13:02:32.251Z,18.34
2022-08-31T13:05:00.722Z,18.33
2022-08-31T13:07:34.033Z,18.28
2022-08-31T13:10:11.433Z,18.27
2022-08-31T13:12:39.626Z,18.25
2022-08-31T13:15:24.896Z,18.42
2022-08-31T13:17:53.688Z,18.52
2022-08-31T13:20:25.660Z,18.47
2022-08-31T13:22:59.789Z,18.48
2022-08-31T13:25:51.763Z,18.55
2022-08-31T13:28:26.270Z,18.43
2022-08-31T13:31:09.292Z,18.33
2022-08-31T13:33:40.576Z,18.09
2022-08-31T13:36:13.273Z,17.93
2022-08-31T13:38:50.462Z,17.90
2022-08-31T13:41:29.974Z,18.16
2022-08-31T13:44:02.627Z,18.10
2022-08-31T13:46:43.431Z,18.23
2022-08-31T13:49:41.920Z,18.25
2022-08-31T13:52:25.407Z,18.20
2022-08-31T13:55:04.185Z,18.23
2022-08-31T13:57:35.839Z,18.39
2022-08-31T14:00:25.344Z,18.38
2022-08-31T14:02:54.037Z,18.23
2022-08-31T14:05:38.164Z,18.20
2022-08-31T14:08:08.357Z,18.21
2022-08-31T14:10:40.678Z,18.26
2022-08-31T14:13:20.131Z,18.01
2022-08-31T14:16:03.093Z,18.17
2022-08-31T14:18:40.315Z,18.28
2022-08-31T14:21:20.739Z,18.39
2022-08-31T14:24:00.540Z,18.29
2022-08-31T14:26:31.049Z,18.22
2022-08-31T14:29:01.698Z,18.31
2022-08-31T14:31:49.241Z,18.46
2022-08-31T14:34:34.042Z,18.34
2022-08-31T14:37:07.229Z,18.29
2022-08-31T14:39:36.974Z,18.51
2022-08-31T14:42:08.121Z,18.40
2022-08-31T14:44:41.822Z,18.29
2022-08-31T14:47:12.442Z,18.20
2022-08-31T14:49:45.598Z,18.37
2022-08-31T14:52:13.210Z,18.36
2022-08-31T14:54:41.154Z,18.40
2022-08-31T14:57:15.814Z,18.53
2022-08-31T14:59:44.854Z,18.65
2022-08-31T15:02:21.292Z,18.66
2022-08-31T15:04:49.003Z,18.73
2022-08-31T15:07:17.349Z,18.86
2022-08-31T15:09:47.897Z,18.73
2022-08-31T15:12:18.144Z,18.77
2022-08-31T15:14:47.359Z,18.44
2022-08-31T15:17:18.964Z,18.16
2022-08-31T15:19:50.525Z,17.93
2022-08-31T15:22:18.318Z,17.67
2022-08-31T15:24:45.718Z,17.63
2022-08-31T15:27:15.534Z,17.53
2022-08-31T15:29:45.628Z,17.15
2022-08-31T15:32:19.471Z,17.00
2022-08-31T15:34:58.173Z,17.05
2022-08-31T15:37:31.797Z,16.96
2022-08-31T15:40:05.307Z,16.99
2022-08-31T15:42:38.376Z,16.95
2022-08-31T15:45:06.988Z,16.92
2022-08-31T15:47:56.526Z,16.88
2022-08-31T15:50:31.398Z,16.86
2022-08-31T15:53:08.199Z,16.58
2022-08-31T15:55:40.894Z,16.33
2022-08-31T15:58:09.534Z,16.29
2022-08-31T16:00:38.405Z,16.34
2022-08-31T16:03:06.297Z,16.22
2022-08-31T16:05:39.497Z,16.07
2022-08-31T16:08:11.084Z,15.55
2022-08-31T16:10:45.508Z,15.40
2022-08-31T16:13:15.874Z,15.35
2022-08-31T16:15:51.101Z,15.32
2022-08-31T16:18:22.148Z,15.46
2022-08-31T16:20:50.617Z,15.33
2022-08-31T16:23:18.406Z,15.31
2022-08-31T16:25:49.141Z,15.43
2022-08-31T16:28:19.715Z,15.60
2022-08-31T16:30:47.656Z,15.73
2022-08-31T16:33:14.979Z,15.83
2022-08-31T16:35:44.699Z,15.93
2022-08-31T16:38:12.806Z,15.93
2022-08-31T16:40:41.968Z,15.92
2022-08-31T16:43:09.898Z,15.89
2022-08-31T16:45:41.489Z,15.81
2022-08-31T16:48:30.040Z,15.78
2022-08-31T16:51:01.934Z,15.80
2022-08-31T16:53:30.494Z,15.78
2022-08-31T16:56:00.112Z,15.92
2022-08-31T16:58:50.610Z,16.06
2022-08-31T17:01:25.605Z,15.85
2022-08-31T17:04:03.383Z,15.88
2022-08-31T17:06:35.782Z,15.89
2022-08-31T17:09:06.851Z,15.79
2022-08-31T17:11:45.093Z,15.56
2022-08-31T17:14:15.776Z,15.61
2022-08-31T17:16:43.664Z,15.47
2022-08-31T17:19:13.695Z,15.57
2022-08-31T17:21:52.196Z,15.67
2022-08-31T17:24:30.433Z,15.67
2022-08-31T17:27:01.365Z,15.54
2022-08-31T17:29:37.770Z,15.44
2022-08-31T17:32:13.823Z,15.38
2022-08-31T17:34:43.152Z,15.37
2022-08-31T17:37:15.398Z,15.35
2022-08-31T17:39:45.415Z,15.35
2022-08-31T17:42:17.097Z,15.38
2022-08-31T17:44:48.066Z,15.32
2022-08-31T17:47:15.595Z,15.26
2022-08-31T17:49:46.559Z,15.25
2022-08-31T17:52:14.598Z,15.28
2022-08-31T17:54:43.410Z,15.21
2022-08-31T17:57:13.887Z,15.13
2022-08-31T17:59:46.599Z,15.10
2022-08-31T18:02:17.722Z,15.00
2022-08-31T18:04:45.385Z,15.06
2022-08-31T18:07:12.759Z,15.18
2022-08-31T18:09:42.872Z,15.11
2022-08-31T18:12:10.348Z,15.06
2022-08-31T18:14:39.031Z,15.10
2022-08-31T18:17:10.286Z,15.10
2022-08-31T18:19:38.328Z,15.03
2022-08-31T18:22:07.039Z,14.97
2022-08-31T18:24:37.000Z,14.90
2022-08-31T18:27:08.019Z,14.95
2022-08-31T18:29:37.222Z,14.81
2022-08-31T18:32:07.411Z,14.76
2022-08-31T18:34:39.773Z,14.72
2022-08-31T18:37:08.135Z,14.64
2022-08-31T18:39:59.953Z,14.54
2022-08-31T18:42:47.577Z,14.60
2022-08-31T18:45:21.456Z,14.47
2022-08-31T18:48:23.135Z,14.33
2022-08-31T18:50:44.587Z,14.28
2022-08-31T18:53:15.048Z,14.25
2022-08-31T18:55:44.229Z,14.21
2022-08-31T18:58:12.199Z,14.19
2022-08-31T19:00:40.500Z,14.25
2022-08-31T19:03:08.205Z,14.10
2022-08-31T19:05:39.149Z,13.92
2022-08-31T19:08:06.419Z,13.86
2022-08-31T19:10:34.855Z,13.84
2022-08-31T19:13:07.351Z,13.93
2022-08-31T19:15:39.838Z,14.12
2022-08-31T19:18:08.659Z,14.01
2022-08-31T19:20:36.219Z,14.13
2022-08-31T19:23:03.782Z,14.00
2022-08-31T19:25:32.093Z,13.83
2022-08-31T19:28:06.606Z,13.85
2022-08-31T19:30:35.150Z,13.94
2022-08-31T19:33:08.506Z,13.75
2022-08-31T19:35:38.570Z,13.63
2022-08-31T19:38:06.381Z,13.46
2022-08-31T19:40:40.181Z,13.34
2022-08-31T19:45:55.030Z,13.21
2022-08-31T19:48:23.887Z,13.18
2022-08-31T19:50:52.344Z,13.14
2022-08-31T19:53:21.535Z,13.15
2022-08-31T19:55:51.486Z,13.18
2022-08-31T19:58:26.632Z,13.14
2022-08-31T20:01:00.573Z,13.10
2022-08-31T20:03:31.300Z,13.07
2022-08-31T20:05:59.993Z,13.11
2022-08-31T20:08:27.259Z,13.00
2022-08-31T20:10:54.570Z,12.92
2022-08-31T20:13:24.249Z,12.84
2022-08-31T20:15:53.033Z,12.80
2022-08-31T20:18:20.929Z,12.73
2022-08-31T20:20:50.922Z,12.73
2022-08-31T20:23:21.360Z,12.65
2022-08-31T20:25:51.198Z,12.58
2022-08-31T20:28:26.932Z,12.59
2022-08-31T20:30:55.359Z,12.58
2022-08-31T20:33:22.917Z,12.54
2022-08-31T20:35:50.161Z,12.54
2022-08-31T20:38:18.958Z,12.36
2022-08-31T20:40:52.282Z,12.33
2022-08-31T20:43:21.313Z,12.25
2022-08-31T20:45:49.165Z,12.20
2022-08-31T20:48:35.218Z,12.14
2022-08-31T20:51:16.227Z,12.07
2022-08-31T20:53:44.514Z,12.09
2022-08-31T20:56:16.915Z,12.12
2022-08-31T20:58:48.478Z,12.11
2022-08-31T21:01:16.199Z,12.00
2022-08-31T21:03:43.488Z,11.96
2022-08-31T21:06:13.096Z,11.91
2022-08-31T21:08:42.645Z,11.91
2022-08-31T21:11:15.203Z,11.82
2022-08-31T21:13:43.873Z,11.78
2022-08-31T21:16:11.506Z,11.74
2022-08-31T21:18:40.515Z,11.76
2022-08-31T21:21:14.603Z,11.71
2022-08-31T21:23:42.365Z,11.70
2022-08-31T21:26:17.152Z,11.66
2022-08-31T21:28:46.380Z,11.62
2022-08-31T21:31:18.384Z,11.60
2022-08-31T21:33:58.237Z,11.59
2022-08-31T21:36:26.814Z,11.58
2022-08-31T21:38:56.093Z,11.51
2022-08-31T21:41:26.771Z,11.53
2022-08-31T21:43:55.899Z,11.52
2022-08-31T21:46:28.383Z,11.45
2022-08-31T21:48:58.304Z,11.49
2022-08-31T21:51:29.025Z,11.38
2022-08-31T21:54:02.545Z,11.41
2022-08-31T21:56:32.549Z,11.39
2022-08-31T21:59:00.888Z,11.36
2022-08-31T22:01:29.426Z,11.37
2022-08-31T22:03:59.301Z,11.37
2022-08-31T22:06:31.145Z,11.35
2022-08-31T22:09:13.482Z,11.35
2022-08-31T22:11:45.714Z,11.38
2022-08-31T22:14:16.440Z,11.42
2022-08-31T22:16:46.633Z,11.51
2022-08-31T22:19:18.433Z,11.46
2022-08-31T22:21:48.415Z,11.43
2022-08-31T22:24:27.679Z,11.37
2022-08-31T22:26:58.158Z,11.40
2022-08-31T22:29:28.988Z,11.49
2022-08-31T22:32:00.880Z,11.44
2022-08-31T22:34:28.075Z,11.37
2022-08-31T22:36:56.579Z,11.32
2022-08-31T22:39:28.649Z,11.28
2022-08-31T22:41:57.533Z,11.33
2022-08-31T22:44:28.442Z,11.32
2022-08-31T22:46:59.361Z,11.42
2022-08-31T22:49:27.203Z,11.61
2022-08-31T22:51:54.998Z,11.42
2022-08-31T22:54:23.278Z,11.35
2022-08-31T22:56:51.906Z,11.18
2022-08-31T22:59:26.181Z,11.18
2022-08-31T23:01:57.133Z,11.09
2022-08-31T23:04:26.389Z,11.17
2022-08-31T23:06:56.202Z,11.19
2022-08-31T23:09:27.896Z,11.22
2022-08-31T23:11:56.378Z,11.08
2022-08-31T23:14:23.966Z,11.34
2022-08-31T23:16:59.276Z,11.24
2022-08-31T23:19:36.990Z,11.24
2022-08-31T23:22:09.444Z,11.07
2022-08-31T23:24:38.732Z,11.01
2022-08-31T23:27:09.314Z,11.01
2022-08-31T23:29:40.640Z,11.06
2022-08-31T23:32:13.463Z,11.17
2022-08-31T23:34:41.824Z,11.12
2022-08-31T23:37:11.223Z,11.03
2022-08-31T23:39:43.954Z,10.92
2022-08-31T23:42:14.029Z,11.10
2022-08-31T23:44:43.706Z,10.93
2022-08-31T23:47:13.906Z,10.77
2022-08-31T23:49:43.911Z,10.72
2022-08-31T23:52:13.101Z,10.73
2022-08-31T23:54:40.507Z,10.75
2022-08-31T23:57:31.191Z,11.00
